Time;durP1;ratioP1;P1;durP2;ratioP2;P2;SDS_P1;SDS_P2;PMS_P1;PMS_P2;Temp;Humidity;BMP_temperature;BMP_pressure;BME280_temperature;BME280_humidity;BME280_pressure;Samples;Min_cycle;Max_cycle;Signal;HPM_P1;HPM_P2
2023/07/29 00:01:31;;;;;;;0.00;0.00;;;;;;;25.84;63.83;100743.00;5046014;28;20029;-74
2023/07/29 00:03:57;;;;;;;0.00;0.00;;;;;;;26.04;62.96;100745.00;5043850;28;20047;-75
2023/07/29 00:06:23;;;;;;;0.00;0.00;;;;;;;26.07;62.75;100741.63;5028429;28;20517;-76
2023/07/29 00:08:49;;;;;;;0.00;0.00;;;;;;;25.96;63.04;100743.09;5038249;28;20044;-76
2023/07/29 00:11:14;;;;;;;0.00;0.00;;;;;;;25.88;63.41;100741.22;5038314;28;20034;-74
2023/07/29 00:13:40;;;;;;;0.00;0.00;;;;;;;25.72;64.26;100734.63;5040325;28;20032;-74
2023/07/29 00:16:06;;;;;;;0.00;0.00;;;;;;;26.01;62.26;100731.91;5040526;28;20032;-75
2023/07/29 00:18:31;;;;;;;0.00;0.00;;;;;;;25.57;64.18;100734.34;5038403;28;20521;-75
2023/07/29 00:20:57;;;;;;;0.00;0.00;;;;;;;25.64;63.76;100732.69;5022754;28;20051;-76
2023/07/29 00:23:23;;;;;;;0.08;0.08;;;;;;;25.94;62.70;100736.31;5022905;28;20036;-74
2023/07/29 00:25:48;;;;;;;0.00;0.00;;;;;;;26.12;62.48;100740.66;5023448;28;20555;-75
2023/07/29 00:28:13;;;;;;;0.00;0.00;;;;;;;26.33;60.92;100743.47;5041598;28;20099;-76
2023/07/29 00:30:39;;;;;;;0.00;0.00;;;;;;;26.28;61.41;100743.66;5039227;28;20029;-74
2023/07/29 00:33:04;;;;;;;0.00;0.00;;;;;;;26.29;61.38;100737.81;5040092;28;20390;-74
2023/07/29 00:35:29;;;;;;;0.10;0.10;;;;;;;25.71;62.92;100734.94;5040414;28;20034;-76
2023/07/29 00:37:55;;;;;;;0.00;0.00;;;;;;;25.54;64.29;100729.47;5038425;28;20827;-75
2023/07/29 00:40:22;;;;;;;0.00;0.00;;;;;;;25.02;65.46;100732.25;5041673;28;20086;-74
2023/07/29 00:42:49;;;;;;;0.00;0.00;;;;;;;24.82;66.07;100732.91;5039836;28;20080;-75
2023/07/29 00:45:14;;;;;;;0.10;0.10;;;;;;;25.11;64.99;100738.56;5038178;28;20037;-74
2023/07/29 00:47:42;;;;;;;0.00;0.00;;;;;;;24.80;65.28;100729.69;5040182;28;20087;-75
2023/07/29 00:50:09;;;;;;;0.10;0.10;;;;;;;25.30;63.34;100723.69;5029901;28;20461;-74
2023/07/29 00:52:34;;;;;;;0.00;0.00;;;;;;;25.74;61.43;100723.25;5029870;28;20485;-75
2023/07/29 00:55:00;;;;;;;0.00;0.00;;;;;;;25.22;62.49;100726.09;5030638;28;20032;-75
2023/07/29 00:57:28;;;;;;;0.00;0.00;;;;;;;25.02;62.16;100724.00;5029453;28;20041;-76
2023/07/29 00:59:53;;;;;;;0.00;0.00;;;;;;;25.01;62.63;100719.66;5029198;28;20033;-75
2023/07/29 01:02:19;;;;;;;0.00;0.00;;;;;;;25.17;61.96;100719.97;5029176;28;20500;-75
2023/07/29 01:04:44;;;;;;;0.00;0.00;;;;;;;25.14;61.27;100712.34;5029052;28;20029;-75
2023/07/29 01:07:38;;;;;;;0.10;0.10;;;;;;;25.54;60.02;100711.03;5029708;28;20029;-74
2023/07/29 01:10:45;;;;;;;0.00;0.00;;;;;;;25.20;60.91;100700.84;4962412;28;20061;-75
2023/07/29 01:13:16;;;;;;;0.00;0.00;;;;;;;24.38;63.40;100703.72;4857400;29;20041;-76
2023/07/29 01:15:42;;;;;;;0.00;0.00;;;;;;;24.86;62.08;100700.09;4872850;29;20041;-75
2023/07/29 01:18:22;;;;;;;0.00;0.00;;;;;;;24.22;64.39;100701.72;4872874;29;20136;-75
2023/07/29 01:20:54;;;;;;;0.05;0.05;;;;;;;24.59;63.13;100703.09;4872906;29;20044;-76
2023/07/29 01:23:32;;;;;;;0.00;0.00;;;;;;;24.95;61.62;100701.69;4881408;29;20040;-76
2023/07/29 01:25:57;;;;;;;0.00;0.00;;;;;;;24.69;62.77;100700.84;4891307;29;20060;-75
2023/07/29 01:28:24;;;;;;;0.00;0.00;;;;;;;24.70;62.85;100702.47;4891806;29;20091;-75
2023/07/29 01:30:53;;;;;;;0.10;0.10;;;;;;;25.21;60.90;100702.50;4891419;29;20047;-74
2023/07/29 01:33:26;;;;;;;0.00;0.00;;;;;;;24.68;62.87;100709.41;4891501;29;20036;-74
2023/07/29 01:36:02;;;;;;;0.00;0.00;;;;;;;25.73;59.53;100694.91;4891534;29;20044;-74
2023/07/29 01:38:33;;;;;;;0.00;0.00;;;;;;;25.75;59.20;100700.91;4875701;29;20033;-74
2023/07/29 01:41:01;;;;;;;;;;;;;;;25.44;60.43;100696.78;4892254;29;20043;-75
2023/07/29 01:43:28;;;;;;;0.00;0.00;;;;;;;25.32;60.11;100686.44;4887413;29;19921;-75
2023/07/29 01:45:53;;;;;;;0.00;0.00;;;;;;;25.48;59.59;100686.75;4873667;29;20045;-74
2023/07/29 01:48:19;;;;;;;0.00;0.00;;;;;;;25.25;60.93;100694.38;4910183;29;20043;-75
2023/07/29 01:50:44;;;;;;;0.00;0.00;;;;;;;24.82;62.47;100691.69;4995789;28;20046;-75
2023/07/29 01:53:09;;;;;;;0.00;0.00;;;;;;;24.38;64.30;100698.22;5010033;28;20076;-74
2023/07/29 01:55:35;;;;;;;0.10;0.10;;;;;;;24.60;63.61;100694.53;5006414;28;20034;-74
2023/07/29 01:58:00;;;;;;;0.00;0.00;;;;;;;24.98;61.74;100703.00;5029156;28;20021;-74
2023/07/29 02:00:26;;;;;;;0.00;0.00;;;;;;;25.07;61.84;100699.09;5028946;28;20052;-76
2023/07/29 02:02:51;;;;;;;0.00;0.00;;;;;;;25.29;60.40;100695.34;5028904;28;20041;-75
2023/07/29 02:05:16;;;;;;;0.00;0.00;;;;;;;25.48;59.67;100695.00;5032450;28;20037;-75
2023/07/29 02:07:42;;;;;;;0.00;0.00;;;;;;;25.26;60.35;100693.22;5032801;28;20040;-74
2023/07/29 02:10:08;;;;;;;0.00;0.00;;;;;;;24.91;61.87;100697.16;5033024;28;20564;-74
2023/07/29 02:12:33;;;;;;;0.00;0.00;;;;;;;25.31;60.47;100686.75;5014087;28;20030;-76
2023/07/29 02:14:59;;;;;;;0.00;0.00;;;;;;;25.32;60.57;100686.44;5032533;28;20420;-74
2023/07/29 02:17:25;;;;;;;0.00;0.00;;;;;;;25.53;59.29;100684.66;5032176;28;20049;-75
2023/07/29 02:19:51;;;;;;;0.00;0.00;;;;;;;25.00;61.21;100682.25;5032273;28;20057;-75
2023/07/29 02:22:17;;;;;;;0.00;0.00;;;;;;;24.50;63.01;100675.59;5032832;28;20036;-75
2023/07/29 02:24:43;;;;;;;0.00;0.00;;;;;;;24.92;61.50;100672.06;5032248;28;20067;-77
2023/07/29 02:27:08;;;;;;;0.00;0.00;;;;;;;24.74;62.28;100676.00;5032025;28;20042;-75
2023/07/29 02:29:34;;;;;;;0.00;0.00;;;;;;;24.46;63.39;100671.88;5031698;28;20478;-76
2023/07/29 02:32:00;;;;;;;0.00;0.00;;;;;;;24.17;64.14;100672.50;5031890;28;20025;-75
2023/07/29 02:34:25;;;;;;;0.00;0.00;;;;;;;23.79;65.73;100678.78;5032588;28;20021;-76
2023/07/29 02:36:50;;;;;;;0.00;0.00;;;;;;;23.33;68.00;100685.47;5031906;28;20393;-74
2023/07/29 02:39:16;;;;;;;0.10;0.10;;;;;;;24.03;65.36;100679.22;5031370;28;20038;-75
2023/07/29 02:41:41;;;;;;;0.00;0.00;;;;;;;24.30;63.52;100677.03;5031031;28;20221;-77
2023/07/29 02:44:07;;;;;;;0.00;0.00;;;;;;;24.60;63.14;100689.03;5031713;28;20042;-76
2023/07/29 02:46:32;;;;;;;0.00;0.00;;;;;;;23.84;65.51;100679.44;5031366;28;20091;-75
2023/07/29 02:48:57;;;;;;;0.00;0.00;;;;;;;24.19;64.03;100683.97;5032183;28;20033;-76
2023/07/29 02:51:23;;;;;;;0.00;0.00;;;;;;;24.27;64.27;100674.13;5031538;28;20034;-75
2023/07/29 02:53:48;;;;;;;0.00;0.00;;;;;;;24.82;61.76;100679.88;5031241;28;20052;-76
2023/07/29 02:56:14;;;;;;;0.10;0.10;;;;;;;24.79;62.35;100684.06;5031161;28;20599;-76
2023/07/29 02:58:39;;;;;;;0.00;0.00;;;;;;;24.82;62.28;100677.13;5031326;28;20021;-76
2023/07/29 03:01:05;;;;;;;0.00;0.00;;;;;;;24.79;62.18;100670.31;5031728;28;20021;-75
2023/07/29 03:03:31;;;;;;;0.10;0.10;;;;;;;24.58;63.09;100676.75;5030932;28;20162;-74
2023/07/29 03:06:03;;;;;;;0.00;0.00;;;;;;;25.03;62.27;100664.31;5031108;28;20041;-75
2023/07/29 03:08:30;;;;;;;0.00;0.00;;;;;;;24.64;63.48;100662.53;5031505;28;20120;-74
2023/07/29 03:10:56;;;;;;;0.00;0.00;;;;;;;24.76;63.19;100651.72;5031149;28;20040;-75
2023/07/29 03:13:22;;;;;;;0.00;0.00;;;;;;;24.87;63.43;100644.75;5031850;28;20036;-75
2023/07/29 03:15:47;;;;;;;0.10;0.10;;;;;;;25.04;62.42;100652.19;5031236;28;20508;-76
2023/07/29 03:18:12;;;;;;;0.10;0.10;;;;;;;25.28;61.35;100656.03;5031183;28;20038;-75
2023/07/29 03:20:38;;;;;;;0.00;0.00;;;;;;;25.35;61.87;100658.28;5031055;28;20038;-75
2023/07/29 03:23:03;;;;;;;0.00;0.00;;;;;;;25.54;60.46;100658.72;5030832;28;20413;-76
2023/07/29 03:25:29;;;;;;;0.00;0.00;;;;;;;25.51;60.56;100653.09;5030941;28;20030;-71
2023/07/29 03:27:55;;;;;;;0.00;0.00;;;;;;;25.64;60.52;100663.88;5031140;28;20040;-74
2023/07/29 03:30:21;;;;;;;0.00;0.00;;;;;;;25.60;60.69;100660.16;5030959;28;20090;-75
2023/07/29 03:32:46;;;;;;;0.00;0.00;;;;;;;25.44;61.10;100645.31;5030706;28;20045;-75
2023/07/29 03:35:12;;;;;;;0.00;0.00;;;;;;;25.32;62.41;100642.41;5030755;28;20033;-75
2023/07/29 03:37:38;;;;;;;0.00;0.00;;;;;;;25.60;60.98;100646.41;5030370;28;20030;-75
2023/07/29 03:40:04;;;;;;;0.00;0.00;;;;;;;25.63;60.74;100648.47;5013205;28;20025;-75
2023/07/29 03:42:29;;;;;;;0.00;0.00;;;;;;;25.59;60.46;100650.28;5012605;28;20410;-75
2023/07/29 03:44:55;;;;;;;0.00;0.00;;;;;;;25.50;60.76;100652.25;5030518;28;20175;-76
2023/07/29 03:47:20;;;;;;;0.00;0.00;;;;;;;25.48;60.65;100653.72;5025972;28;20034;-75
2023/07/29 03:49:45;;;;;;;0.00;0.00;;;;;;;25.35;61.64;100647.28;5030057;28;20473;-74
2023/07/29 03:52:11;;;;;;;0.00;0.00;;;;;;;25.40;61.20;100641.63;5030742;28;20030;-75
2023/07/29 03:54:36;;;;;;;0.00;0.00;;;;;;;25.38;60.86;100646.59;5030557;28;20047;-75
2023/07/29 03:57:01;;;;;;;0.00;0.00;;;;;;;25.32;61.85;100644.38;5030468;28;20052;-75
2023/07/29 03:59:27;;;;;;;0.00;0.00;;;;;;;25.48;61.15;100639.97;5029993;28;20357;-75
2023/07/29 04:01:52;;;;;;;0.00;0.00;;;;;;;25.25;61.74;100640.19;5028117;28;20033;-76
2023/07/29 04:04:18;;;;;;;0.10;0.10;;;;;;;25.19;61.72;100647.00;5030111;28;20021;-76
2023/07/29 04:06:43;;;;;;;0.00;0.00;;;;;;;25.18;62.18;100647.28;5029063;28;20145;-75
2023/07/29 04:09:09;;;;;;;0.00;0.00;;;;;;;25.04;62.77;100638.44;5029666;28;20048;-74
2023/07/29 04:11:34;;;;;;;0.00;0.00;;;;;;;24.97;63.33;100630.69;5029341;28;20034;-75
2023/07/29 04:14:00;;;;;;;0.00;0.00;;;;;;;25.05;63.38;100642.81;5029855;28;20039;-77
2023/07/29 04:16:26;;;;;;;0.00;0.00;;;;;;;24.98;63.82;100648.00;5030810;28;20040;-76
2023/07/29 04:18:51;;;;;;;0.08;0.08;;;;;;;25.04;63.25;100643.94;5029507;28;20048;-75
2023/07/29 04:21:16;;;;;;;0.00;0.00;;;;;;;24.67;64.94;100634.38;5030054;28;20388;-74
2023/07/29 04:23:42;;;;;;;0.00;0.00;;;;;;;24.93;63.98;100637.16;5029921;28;20388;-75
2023/07/29 04:26:07;;;;;;;0.00;0.00;;;;;;;24.61;65.31;100632.94;5029231;28;20034;-75
2023/07/29 04:28:33;;;;;;;0.00;0.00;;;;;;;24.85;64.70;100632.47;5029426;28;20046;-75
2023/07/29 04:30:58;;;;;;;0.10;0.10;;;;;;;24.90;64.26;100632.31;5030005;28;20072;-75
2023/07/29 04:33:23;;;;;;;0.05;0.05;;;;;;;25.05;63.96;100649.13;5024008;28;20064;-75
2023/07/29 04:35:49;;;;;;;0.00;0.00;;;;;;;25.32;63.07;100645.16;5029508;28;20036;-75
2023/07/29 04:38:14;;;;;;;0.08;0.08;;;;;;;25.21;63.55;100644.72;5029624;28;20037;-76
2023/07/29 04:40:40;;;;;;;0.00;0.00;;;;;;;25.20;63.52;100634.84;5029543;28;20037;-75
2023/07/29 04:43:05;;;;;;;0.00;0.00;;;;;;;25.28;62.80;100638.69;5028496;28;20029;-75
2023/07/29 04:45:30;;;;;;;0.10;0.10;;;;;;;25.30;62.94;100625.41;5029793;28;20044;-75
2023/07/29 04:47:57;;;;;;;0.00;0.00;;;;;;;25.30;63.03;100632.88;5029167;28;20327;-75
2023/07/29 04:50:23;;;;;;;0.00;0.00;;;;;;;25.39;62.65;100639.16;5029806;28;20116;-76
2023/07/29 04:52:48;;;;;;;0.00;0.00;;;;;;;24.77;64.33;100639.59;5011727;28;20104;-75
2023/07/29 04:55:14;;;;;;;0.00;0.00;;;;;;;24.78;65.33;100646.72;5029672;28;20029;-75
2023/07/29 04:57:39;;;;;;;0.00;0.00;;;;;;;25.29;63.32;100637.56;5029050;28;20041;-77
2023/07/29 05:00:05;;;;;;;0.00;0.00;;;;;;;25.26;63.27;100636.28;5029550;28;20033;-76
2023/07/29 05:02:30;;;;;;;0.00;0.00;;;;;;;25.37;62.93;100631.25;5029503;28;20079;-74
2023/07/29 05:04:55;;;;;;;0.00;0.00;;;;;;;25.23;64.19;100623.19;5029301;28;20037;-76
2023/07/29 05:07:21;;;;;;;0.00;0.00;;;;;;;25.24;63.67;100622.03;5029999;28;20022;-74
2023/07/29 05:09:47;;;;;;;0.00;0.00;;;;;;;24.81;65.23;100635.06;5029398;28;20026;-75
2023/07/29 05:12:13;;;;;;;0.00;0.00;;;;;;;24.82;65.96;100639.44;5029284;28;20444;-76
2023/07/29 05:14:38;;;;;;;0.00;0.00;;;;;;;25.23;63.53;100645.19;5029088;28;20034;-75
2023/07/29 05:17:04;;;;;;;0.00;0.00;;;;;;;24.17;67.82;100641.47;5026908;28;20049;-77
2023/07/29 05:19:29;;;;;;;0.00;0.00;;;;;;;23.40;71.06;100646.66;5029343;28;20065;-75
2023/07/29 05:21:56;;;;;;;0.00;0.00;;;;;;;23.52;70.93;100658.66;5029959;28;20041;-75
2023/07/29 05:24:21;;;;;;;0.00;0.00;;;;;;;22.92;72.84;100662.13;5029598;28;20033;-74
2023/07/29 05:26:46;;;;;;;0.00;0.00;;;;;;;23.62;70.13;100657.56;5028827;28;20045;-74
2023/07/29 05:29:12;;;;;;;0.10;0.10;;;;;;;23.66;70.24;100655.81;5026104;28;20088;-75
2023/07/29 05:31:38;;;;;;;0.00;0.00;;;;;;;23.50;69.88;100662.84;5011040;28;20033;-75
2023/07/29 05:34:04;;;;;;;0.00;0.00;;;;;;;23.27;71.35;100664.75;5029992;28;20030;-75
2023/07/29 05:36:29;;;;;;;0.00;0.00;;;;;;;22.56;73.60;100678.53;5026519;28;20030;-75
2023/07/29 05:38:55;;;;;;;0.10;0.10;;;;;;;23.16;71.49;100671.63;5031593;28;20045;-75
2023/07/29 05:41:20;;;;;;;0.00;0.00;;;;;;;22.56;74.21;100673.84;5032633;28;20026;-75
2023/07/29 05:43:46;;;;;;;0.10;0.10;;;;;;;23.56;70.56;100675.28;5032621;28;20079;-76
2023/07/29 05:46:12;;;;;;;0.00;0.00;;;;;;;23.58;69.63;100673.03;5033385;28;20108;-75
2023/07/29 05:48:37;;;;;;;0.00;0.00;;;;;;;23.86;69.03;100665.41;5032375;28;20050;-75
2023/07/29 05:51:02;;;;;;;0.00;0.00;;;;;;;23.92;68.28;100666.91;5032691;28;20112;-77
2023/07/29 05:53:28;;;;;;;0.00;0.00;;;;;;;24.09;67.97;100680.69;5032664;28;20026;-76
2023/07/29 05:55:53;;;;;;;0.00;0.00;;;;;;;23.69;69.43;100676.31;5032621;28;20068;-75
2023/07/29 05:58:19;;;;;;;0.00;0.00;;;;;;;23.79;69.23;100674.09;5032959;28;20037;-74
2023/07/29 06:00:44;;;;;;;0.10;0.10;;;;;;;23.52;69.10;100679.78;5032320;28;20042;-74
2023/07/29 06:03:09;;;;;;;0.00;0.00;;;;;;;23.46;69.67;100668.16;5032357;28;20030;-75
2023/07/29 06:05:35;;;;;;;0.10;0.10;;;;;;;23.32;71.14;100670.16;5013834;28;20045;-74
2023/07/29 06:08:00;;;;;;;0.10;0.10;;;;;;;23.43;70.72;100677.00;5032429;28;20144;-74
2023/07/29 06:10:25;;;;;;;0.00;0.00;;;;;;;23.84;69.00;100681.38;5032635;28;20547;-77
2023/07/29 06:12:51;;;;;;;0.00;0.00;;;;;;;23.46;69.93;100684.59;5032717;28;20096;-74
2023/07/29 06:15:16;;;;;;;0.00;0.00;;;;;;;23.83;68.81;100688.81;5032079;28;20038;-76
2023/07/29 06:17:42;;;;;;;0.10;0.10;;;;;;;24.02;67.70;100692.13;5032337;28;20148;-75
2023/07/29 06:20:07;;;;;;;0.10;0.10;;;;;;;24.09;68.32;100688.94;5032398;28;20034;-76
2023/07/29 06:22:33;;;;;;;0.00;0.00;;;;;;;23.93;68.72;100688.53;5032221;28;20044;-75
2023/07/29 06:24:58;;;;;;;0.00;0.00;;;;;;;24.45;66.48;100685.94;5032730;28;20355;-76
2023/07/29 06:27:25;;;;;;;0.00;0.00;;;;;;;23.58;70.10;100696.91;5031521;28;20045;-74
2023/07/29 06:29:50;;;;;;;0.00;0.00;;;;;;;23.97;68.86;100703.25;5031660;28;20068;-76
2023/07/29 06:32:16;;;;;;;0.00;0.00;;;;;;;23.81;68.65;100704.78;5031925;28;20497;-76
2023/07/29 06:34:41;;;;;;;0.00;0.00;;;;;;;24.08;67.84;100703.78;5031840;28;20346;-74
2023/07/29 06:37:07;;;;;;;0.00;0.00;;;;;;;24.10;67.13;100704.25;5032458;28;20385;-74
2023/07/29 06:39:32;;;;;;;0.00;0.00;;;;;;;23.72;68.84;100700.38;5031848;28;20103;-76
2023/07/29 06:41:57;;;;;;;0.00;0.00;;;;;;;24.43;66.69;100689.03;5031752;28;20397;-75
2023/07/29 06:44:23;;;;;;;0.00;0.00;;;;;;;24.08;67.40;100698.28;5031490;28;20037;-75
2023/07/29 06:46:48;;;;;;;0.00;0.00;;;;;;;24.16;67.35;100686.53;5031848;28;20061;-75
2023/07/29 06:49:14;;;;;;;0.00;0.00;;;;;;;24.81;65.08;100690.03;5031460;28;20060;-75
2023/07/29 06:51:39;;;;;;;0.00;0.00;;;;;;;24.09;68.05;100691.69;5031301;28;20324;-77
2023/07/29 06:54:04;;;;;;;0.00;0.00;;;;;;;23.81;68.65;100687.50;5031901;28;20200;-75
2023/07/29 06:56:30;;;;;;;0.00;0.00;;;;;;;24.04;68.59;100689.88;5012892;28;20041;-74
2023/07/29 06:58:55;;;;;;;0.00;0.00;;;;;;;24.23;67.61;100679.47;5031317;28;20029;-73
2023/07/29 07:01:20;;;;;;;0.00;0.00;;;;;;;24.33;66.90;100672.84;5031595;28;20444;-74
2023/07/29 07:03:46;;;;;;;0.00;0.00;;;;;;;24.45;67.07;100691.44;5031344;28;20030;-74
2023/07/29 07:06:11;;;;;;;0.00;0.00;;;;;;;24.18;67.99;100687.00;5031033;28;20053;-74
2023/07/29 07:08:37;;;;;;;0.00;0.00;;;;;;;24.78;66.18;100678.91;5034716;28;20149;-74
2023/07/29 07:11:02;;;;;;;0.00;0.00;;;;;;;24.52;66.31;100675.28;5039583;28;20099;-75
2023/07/29 07:13:27;;;;;;;0.00;0.00;;;;;;;24.75;66.53;100683.09;5038230;28;20052;-75
2023/07/29 07:15:56;;;;;;;0.00;0.00;;;;;;;24.91;65.60;100683.41;5030581;28;20060;-76
2023/07/29 07:18:22;;;;;;;0.00;0.00;;;;;;;24.70;66.14;100677.72;5013083;28;20030;-75
2023/07/29 07:20:51;;;;;;;0.00;0.00;;;;;;;24.79;65.43;100678.56;5029963;28;20486;-75
2023/07/29 07:23:18;;;;;;;0.00;0.00;;;;;;;25.07;65.04;100676.28;5029605;28;20520;-74
2023/07/29 07:25:43;;;;;;;0.00;0.00;;;;;;;25.99;61.41;100681.84;5030021;28;20025;-75
2023/07/29 07:28:09;;;;;;;0.00;0.00;;;;;;;25.58;62.57;100684.47;5030406;28;20397;-75
2023/07/29 07:30:35;;;;;;;0.00;0.00;;;;;;;26.19;60.75;100683.06;5029892;28;20031;-75
2023/07/29 07:33:00;;;;;;;0.00;0.00;;;;;;;26.00;60.92;100691.72;5029887;28;20034;-74
2023/07/29 07:35:26;;;;;;;0.00;0.00;;;;;;;25.27;64.32;100689.38;5029128;28;20128;-76
2023/07/29 07:37:52;;;;;;;0.00;0.00;;;;;;;24.87;64.37;100691.50;5030504;28;20773;-75
2023/07/29 07:40:17;;;;;;;0.00;0.00;;;;;;;26.48;59.86;100685.00;5030666;28;20017;-74
2023/07/29 07:42:43;;;;;;;0.00;0.00;;;;;;;25.85;61.75;100695.03;5030431;28;20037;-76
2023/07/29 07:45:08;;;;;;;0.00;0.00;;;;;;;25.10;64.66;100692.94;5030002;28;20052;-75
2023/07/29 07:47:33;;;;;;;0.00;0.00;;;;;;;25.46;62.80;100702.78;5030132;28;20428;-76
2023/07/29 07:49:59;;;;;;;0.00;0.00;;;;;;;25.91;62.03;100707.50;5030104;28;20374;-73
2023/07/29 07:52:24;;;;;;;0.00;0.00;;;;;;;25.96;61.23;100709.25;5012857;28;20109;-76
2023/07/29 07:54:53;;;;;;;0.00;0.00;;;;;;;25.56;62.41;100713.44;5029835;28;20034;-73
2023/07/29 07:57:20;;;;;;;0.00;0.00;;;;;;;26.26;59.68;100710.91;5030041;28;20039;-74
2023/07/29 07:59:45;;;;;;;0.00;0.00;;;;;;;26.15;59.48;100728.16;5029764;28;20088;-73
2023/07/29 08:02:11;;;;;;;0.00;0.00;;;;;;;25.40;62.28;100715.09;5028900;28;20037;-75
2023/07/29 08:04:36;;;;;;;0.00;0.00;;;;;;;25.60;62.30;100715.22;5029434;28;20347;-72
2023/07/29 08:07:01;;;;;;;0.00;0.00;;;;;;;25.75;61.05;100711.91;5028958;28;20044;-73
2023/07/29 08:09:27;;;;;;;0.00;0.00;;;;;;;26.19;58.84;100721.66;5027257;28;20037;-76
2023/07/29 08:11:52;;;;;;;0.00;0.00;;;;;;;25.79;61.29;100717.56;5028773;28;20029;-73
2023/07/29 08:14:17;;;;;;;0.00;0.00;;;;;;;25.82;60.69;100714.16;5028673;28;20044;-70
2023/07/29 08:16:43;;;;;;;0.00;0.00;;;;;;;25.46;61.57;100705.53;5028819;28;20029;-73
2023/07/29 08:19:09;;;;;;;0.00;0.00;;;;;;;25.51;61.13;100708.13;5029080;28;20520;-72
2023/07/29 08:21:35;;;;;;;0.00;0.00;;;;;;;25.69;61.00;100707.72;5028836;28;20042;-71
2023/07/29 08:24:00;;;;;;;0.00;0.00;;;;;;;25.47;61.21;100701.66;5028727;28;20099;-71
2023/07/29 08:26:26;;;;;;;0.00;0.00;;;;;;;26.57;58.66;100703.09;5028478;28;20038;-71
2023/07/29 08:28:51;;;;;;;0.00;0.00;;;;;;;26.37;58.94;100701.13;5029077;28;20562;-71
2023/07/29 08:31:17;;;;;;;0.00;0.00;;;;;;;26.29;59.79;100692.91;5029235;28;20040;-71
2023/07/29 08:33:42;;;;;;;0.00;0.00;;;;;;;26.77;58.30;100694.03;5029111;28;20402;-72
2023/07/29 08:36:07;;;;;;;0.00;0.00;;;;;;;26.00;59.29;100680.69;5029440;28;20519;-72
2023/07/29 08:38:33;;;;;;;0.00;0.00;;;;;;;26.53;58.74;100688.38;5028778;28;20025;-72
2023/07/29 08:41:14;;;;;;;0.00;0.00;;;;;;;28.58;53.74;100686.13;5028756;28;20041;-73
2023/07/29 08:43:54;;;;;;;0.00;0.00;;;;;;;26.69;57.60;100688.59;5017940;28;20131;-71
2023/07/29 08:46:20;;;;;;;0.00;0.00;;;;;;;27.68;54.84;100688.31;5029344;28;20021;-71
2023/07/29 08:48:46;;;;;;;0.00;0.00;;;;;;;27.92;54.12;100683.94;5028792;28;20374;-72
2023/07/29 08:51:12;;;;;;;0.00;0.00;;;;;;;27.90;54.35;100692.59;5028544;28;20259;-72
2023/07/29 08:53:38;;;;;;;0.00;0.00;;;;;;;27.55;54.86;100696.91;5028454;28;20041;-71
2023/07/29 08:56:05;;;;;;;0.00;0.00;;;;;;;26.27;58.54;100695.19;5028897;28;20107;-70
2023/07/29 08:58:31;;;;;;;0.00;0.00;;;;;;;25.85;58.43;100700.53;5010599;28;20013;-70
2023/07/29 09:00:56;;;;;;;0.00;0.00;;;;;;;26.69;56.87;100702.38;5029598;28;20113;-71
2023/07/29 09:03:22;;;;;;;0.00;0.00;;;;;;;26.37;58.30;100700.31;5029044;28;20044;-72
2023/07/29 09:05:48;;;;;;;0.00;0.00;;;;;;;26.93;56.61;100697.81;5028980;28;20038;-72
2023/07/29 09:08:14;;;;;;;0.00;0.00;;;;;;;27.42;55.63;100700.81;5029220;28;20125;-73
2023/07/29 09:10:40;;;;;;;0.00;0.00;;;;;;;27.37;55.90;100709.28;5029130;28;20075;-72
2023/07/29 09:13:07;;;;;;;0.00;0.00;;;;;;;26.51;57.70;100717.41;5028495;28;20554;-72
2023/07/29 09:15:36;;;;;;;0.00;0.00;;;;;;;26.67;58.00;100707.41;5033007;28;20034;-71
2023/07/29 09:18:15;;;;;;;0.00;0.00;;;;;;;27.49;55.99;100717.59;5033232;28;20033;-72
2023/07/29 09:20:40;;;;;;;0.00;0.00;;;;;;;26.62;58.69;100713.09;5032567;28;20044;-71
2023/07/29 09:23:09;;;;;;;0.00;0.00;;;;;;;26.42;58.83;100716.63;5031779;28;20112;-71
2023/07/29 09:25:35;;;;;;;0.00;0.00;;;;;;;27.63;55.31;100709.81;5031484;28;20067;-71
2023/07/29 09:28:07;;;;;;;0.00;0.00;;;;;;;26.19;59.17;100712.56;5013859;28;20018;-70
2023/07/29 09:30:32;;;;;;;0.00;0.00;;;;;;;27.22;57.20;100713.47;5031495;28;20984;-70
2023/07/29 09:32:58;;;;;;;0.00;0.00;;;;;;;26.89;57.24;100709.84;5031928;28;20029;-71
2023/07/29 09:35:27;;;;;;;0.00;0.00;;;;;;;26.45;60.13;100708.53;5014125;28;20025;-71
2023/07/29 09:37:53;;;;;;;0.00;0.00;;;;;;;26.22;61.74;100717.44;5031830;28;20037;-71
2023/07/29 09:40:18;;;;;;;0.00;0.00;;;;;;;25.63;64.84;100711.78;5029458;28;20079;-71
2023/07/29 09:42:52;;;;;;;0.00;0.00;;;;;;;25.88;64.09;100713.66;5031546;28;20026;-71
2023/07/29 09:45:25;;;;;;;0.00;0.00;;;;;;;25.55;64.23;100718.13;5029086;28;20124;-70
2023/07/29 09:47:52;;;;;;;0.00;0.00;;;;;;;24.75;65.81;100705.06;5031672;28;20045;-70
2023/07/29 09:50:18;;;;;;;0.00;0.00;;;;;;;25.80;62.73;100713.69;5032499;28;20117;-69
2023/07/29 09:52:44;;;;;;;0.00;0.00;;;;;;;25.57;62.60;100713.09;5031081;28;20448;-70
2023/07/29 09:55:14;;;;;;;0.00;0.00;;;;;;;25.44;62.92;100705.84;5033433;28;20033;-72
2023/07/29 09:57:40;;;;;;;0.00;0.00;;;;;;;26.22;60.39;100701.69;5010439;28;20041;-70
2023/07/29 10:00:10;;;;;;;0.00;0.00;;;;;;;26.73;58.27;100712.41;5031402;28;20562;-71
2023/07/29 10:02:36;;;;;;;;;;;;;;;26.82;58.28;100701.31;5029939;28;20084;-73
2023/07/29 10:05:03;;;;;;;0.00;0.00;;;;;;;26.60;58.17;100712.63;5013045;28;20297;-72
2023/07/29 10:07:29;;;;;;;0.00;0.00;;;;;;;27.06;56.82;100704.19;5030222;28;20441;-67
2023/07/29 10:09:56;;;;;;;0.00;0.00;;;;;;;27.41;55.91;100699.16;5028876;28;20267;-70
2023/07/29 10:12:22;;;;;;;0.00;0.00;;;;;;;26.81;57.29;100710.75;5028478;28;20044;-70
2023/07/29 10:14:48;;;;;;;0.00;0.00;;;;;;;26.52;58.10;100696.97;5030654;28;20041;-70
2023/07/29 10:17:15;;;;;;;0.00;0.00;;;;;;;27.62;55.49;100700.72;5031364;28;20049;-70
2023/07/29 10:19:42;;;;;;;0.00;0.00;;;;;;;26.84;57.26;100704.53;5031157;28;20033;-70
2023/07/29 10:22:09;;;;;;;0.00;0.00;;;;;;;27.55;55.60;100699.66;5032310;28;20129;-73
2023/07/29 10:24:39;;;;;;;0.00;0.00;;;;;;;27.96;53.31;100694.00;5035028;28;20048;-70
2023/07/29 10:27:06;;;;;;;0.00;0.00;;;;;;;27.31;54.38;100699.56;5030699;28;20038;-70
2023/07/29 10:29:36;;;;;;;0.00;0.00;;;;;;;27.22;54.39;100696.91;5030245;28;20108;-71
2023/07/29 10:32:05;;;;;;;0.00;0.00;;;;;;;26.68;55.52;100698.81;5036551;28;20075;-72
2023/07/29 10:34:33;;;;;;;0.00;0.00;;;;;;;25.70;57.07;100719.56;5040597;28;20033;-70
2023/07/29 10:36:59;;;;;;;0.00;0.00;;;;;;;26.02;56.03;100716.97;5037230;28;20029;-72
2023/07/29 10:39:25;;;;;;;0.00;0.00;;;;;;;26.81;54.76;100713.50;5028851;28;20660;-73
2023/07/29 10:42:02;;;;;;;0.00;0.00;;;;;;;26.55;55.83;100715.59;5030782;28;20030;-73
2023/07/29 10:44:39;;;;;;;0.00;0.00;;;;;;;26.98;54.98;100718.06;5011734;28;20037;-69
2023/07/29 10:47:19;;;;;;;0.00;0.00;;;;;;;27.82;53.44;100715.59;5030064;28;20048;-70
2023/07/29 10:49:46;;;;;;;;;;;;;;;26.78;56.26;100708.66;5030992;28;20497;-71
2023/07/29 10:52:16;;;;;;;0.00;0.00;;;;;;;27.74;53.85;100709.03;5038062;28;19904;-70
2023/07/29 10:54:45;;;;;;;0.00;0.00;;;;;;;28.01;53.23;100704.03;5039273;28;20087;-72
2023/07/29 10:57:15;;;;;;;0.00;0.00;;;;;;;28.44;51.14;100716.09;5030182;28;20022;-72
2023/07/29 10:59:41;;;;;;;0.00;0.00;;;;;;;27.98;51.80;100710.22;5030386;28;20033;-74
2023/07/29 11:02:18;;;;;;;0.00;0.00;;;;;;;28.02;50.33;100705.63;5030801;28;20052;-70
2023/07/29 11:04:49;;;;;;;0.00;0.00;;;;;;;27.58;50.29;100699.78;5029616;28;20124;-73
2023/07/29 11:07:15;;;;;;;0.00;0.00;;;;;;;27.66;50.01;100709.94;5034590;28;20059;-74
2023/07/29 11:10:00;;;;;;;0.00;0.00;;;;;;;27.16;52.91;100705.72;5038854;28;20097;-71
2023/07/29 11:12:38;;;;;;;0.00;0.00;;;;;;;28.03;51.60;100704.50;5036823;28;20069;-72
2023/07/29 11:15:27;;;;;;;0.00;0.00;;;;;;;27.51;54.12;100712.53;5019642;28;20359;-74
2023/07/29 11:17:54;;;;;;;0.00;0.00;;;;;;;27.73;52.80;100712.13;5030150;28;20216;-74
2023/07/29 11:20:24;;;;;;;0.00;0.00;;;;;;;27.86;52.13;100711.00;5023459;28;20476;-73
2023/07/29 11:22:50;;;;;;;0.00;0.00;;;;;;;27.97;52.30;100711.41;5027353;28;20033;-73
2023/07/29 11:25:17;;;;;;;0.00;0.00;;;;;;;27.14;52.91;100716.31;5030441;28;20090;-72